sensor_id;sensor_type;location;lat;lon;timestamp;P1;durP1;ratioP1;P2;durP2;ratioP2
18917;SDS011;9591;52.742;13.650;2023-07-31T00:02:24;6.23;;;2.60;;
18917;SDS011;9591;52.742;13.650;2023-07-31T00:05:12;6.10;;;2.40;;
18917;SDS011;9591;52.742;13.650;2023-07-31T00:07:59;3.90;;;2.43;;
18917;SDS011;9591;52.742;13.650;2023-07-31T00:10:46;3.73;;;2.10;;
18917;SDS011;9591;52.742;13.650;2023-07-31T00:13:33;8.70;;;2.60;;
18917;SDS011;9591;52.742;13.650;2023-07-31T00:16:20;3.63;;;2.10;;
18917;SDS011;9591;52.742;13.650;2023-07-31T00:19:08;2.97;;;2.13;;
18917;SDS011;9591;52.742;13.650;2023-07-31T00:21:56;1.90;;;1.80;;
18917;SDS011;9591;52.742;13.650;2023-07-31T00:24:43;3.80;;;2.07;;
18917;SDS011;9591;52.742;13.650;2023-07-31T00:27:30;5.97;;;2.60;;
18917;SDS011;9591;52.742;13.650;2023-07-31T00:30:17;6.20;;;2.37;;
18917;SDS011;9591;52.742;13.650;2023-07-31T00:33:04;4.27;;;2.20;;
18917;SDS011;9591;52.742;13.650;2023-07-31T00:35:50;3.37;;;2.03;;
18917;SDS011;9591;52.742;13.650;2023-07-31T00:38:39;2.40;;;2.20;;
18917;SDS011;9591;52.742;13.650;2023-07-31T00:41:26;2.57;;;2.17;;
18917;SDS011;9591;52.742;13.650;2023-07-31T00:44:13;5.33;;;2.23;;
18917;SDS011;9591;52.742;13.650;2023-07-31T00:47:00;6.13;;;2.40;;
18917;SDS011;9591;52.742;13.650;2023-07-31T00:49:48;6.43;;;2.10;;
18917;SDS011;9591;52.742;13.650;2023-07-31T00:52:35;3.40;;;2.00;;
18917;SDS011;9591;52.742;13.650;2023-07-31T00:55:23;3.97;;;2.30;;
18917;SDS011;9591;52.742;13.650;2023-07-31T00:58:10;4.23;;;2.10;;
18917;SDS011;9591;52.742;13.650;2023-07-31T01:00:57;1.90;;;1.80;;
18917;SDS011;9591;52.742;13.650;2023-07-31T01:03:44;3.70;;;2.23;;
18917;SDS011;9591;52.742;13.650;2023-07-31T01:06:33;4.20;;;2.30;;
18917;SDS011;9591;52.742;13.650;2023-07-31T01:09:28;4.93;;;2.20;;
18917;SDS011;9591;52.742;13.650;2023-07-31T01:12:23;4.50;;;2.30;;
18917;SDS011;9591;52.742;13.650;2023-07-31T01:15:10;6.00;;;2.30;;
18917;SDS011;9591;52.742;13.650;2023-07-31T01:17:57;7.03;;;2.63;;
18917;SDS011;9591;52.742;13.650;2023-07-31T01:20:44;2.27;;;1.80;;
18917;SDS011;9591;52.742;13.650;2023-07-31T01:23:46;5.30;;;2.10;;
18917;SDS011;9591;52.742;13.650;2023-07-31T01:26:49;4.70;;;2.10;;
18917;SDS011;9591;52.742;13.650;2023-07-31T01:29:45;2.77;;;2.17;;
18917;SDS011;9591;52.742;13.650;2023-07-31T01:32:35;1.90;;;1.60;;
18917;SDS011;9591;52.742;13.650;2023-07-31T01:35:23;9.17;;;2.50;;
18917;SDS011;9591;52.742;13.650;2023-07-31T01:38:10;3.50;;;2.43;;
18917;SDS011;9591;52.742;13.650;2023-07-31T01:40:57;5.70;;;2.30;;
18917;SDS011;9591;52.742;13.650;2023-07-31T01:43:45;5.20;;;2.27;;
18917;SDS011;9591;52.742;13.650;2023-07-31T01:46:32;5.47;;;2.40;;
18917;SDS011;9591;52.742;13.650;2023-07-31T01:49:19;2.63;;;1.80;;
18917;SDS011;9591;52.742;13.650;2023-07-31T01:52:06;2.10;;;1.70;;
18917;SDS011;9591;52.742;13.650;2023-07-31T01:54:53;3.97;;;2.20;;
18917;SDS011;9591;52.742;13.650;2023-07-31T01:57:44;5.53;;;1.93;;
18917;SDS011;9591;52.742;13.650;2023-07-31T02:00:33;4.17;;;2.20;;
18917;SDS011;9591;52.742;13.650;2023-07-31T02:03:20;5.33;;;1.97;;
18917;SDS011;9591;52.742;13.650;2023-07-31T02:06:09;3.43;;;1.57;;
18917;SDS011;9591;52.742;13.650;2023-07-31T02:08:55;5.13;;;2.37;;
18917;SDS011;9591;52.742;13.650;2023-07-31T02:11:42;7.00;;;2.13;;
18917;SDS011;9591;52.742;13.650;2023-07-31T02:14:29;4.00;;;2.67;;
18917;SDS011;9591;52.742;13.650;2023-07-31T02:17:17;3.23;;;2.03;;
18917;SDS011;9591;52.742;13.650;2023-07-31T02:20:05;6.83;;;2.03;;
18917;SDS011;9591;52.742;13.650;2023-07-31T02:22:52;5.47;;;1.90;;
18917;SDS011;9591;52.742;13.650;2023-07-31T02:25:40;6.00;;;1.90;;
18917;SDS011;9591;52.742;13.650;2023-07-31T02:28:29;6.03;;;2.27;;
18917;SDS011;9591;52.742;13.650;2023-07-31T02:31:18;4.73;;;2.30;;
18917;SDS011;9591;52.742;13.650;2023-07-31T02:34:11;3.80;;;2.40;;
18917;SDS011;9591;52.742;13.650;2023-07-31T02:37:06;3.47;;;2.30;;
18917;SDS011;9591;52.742;13.650;2023-07-31T02:39:54;5.97;;;2.17;;
18917;SDS011;9591;52.742;13.650;2023-07-31T02:42:41;3.63;;;1.97;;
18917;SDS011;9591;52.742;13.650;2023-07-31T02:45:28;4.13;;;2.40;;
18917;SDS011;9591;52.742;13.650;2023-07-31T02:48:14;6.97;;;2.63;;
18917;SDS011;9591;52.742;13.650;2023-07-31T02:51:03;11.10;;;2.80;;
18917;SDS011;9591;52.742;13.650;2023-07-31T02:53:49;2.50;;;2.30;;
18917;SDS011;9591;52.742;13.650;2023-07-31T02:56:36;2.53;;;2.30;;
18917;SDS011;9591;52.742;13.650;2023-07-31T02:59:23;4.50;;;2.50;;
18917;SDS011;9591;52.742;13.650;2023-07-31T03:02:11;4.27;;;2.40;;
18917;SDS011;9591;52.742;13.650;2023-07-31T03:04:58;4.90;;;2.50;;
18917;SDS011;9591;52.742;13.650;2023-07-31T03:07:46;4.33;;;2.63;;
18917;SDS011;9591;52.742;13.650;2023-07-31T03:10:33;5.03;;;2.37;;
18917;SDS011;9591;52.742;13.650;2023-07-31T03:13:20;4.70;;;2.67;;
18917;SDS011;9591;52.742;13.650;2023-07-31T03:16:07;3.63;;;2.57;;
18917;SDS011;9591;52.742;13.650;2023-07-31T03:18:54;6.03;;;2.60;;
18917;SDS011;9591;52.742;13.650;2023-07-31T03:21:41;3.17;;;2.50;;
18917;SDS011;9591;52.742;13.650;2023-07-31T03:24:29;4.07;;;2.47;;
18917;SDS011;9591;52.742;13.650;2023-07-31T03:27:15;4.50;;;2.70;;
18917;SDS011;9591;52.742;13.650;2023-07-31T03:30:03;4.17;;;2.60;;
18917;SDS011;9591;52.742;13.650;2023-07-31T03:32:50;5.50;;;2.70;;
18917;SDS011;9591;52.742;13.650;2023-07-31T03:35:37;4.13;;;2.87;;
18917;SDS011;9591;52.742;13.650;2023-07-31T03:38:24;5.20;;;3.00;;
18917;SDS011;9591;52.742;13.650;2023-07-31T03:41:12;8.70;;;3.30;;
18917;SDS011;9591;52.742;13.650;2023-07-31T03:44:02;5.63;;;2.70;;
18917;SDS011;9591;52.742;13.650;2023-07-31T03:46:50;11.50;;;2.93;;
18917;SDS011;9591;52.742;13.650;2023-07-31T03:49:38;10.47;;;2.93;;
18917;SDS011;9591;52.742;13.650;2023-07-31T03:52:25;9.20;;;2.67;;
18917;SDS011;9591;52.742;13.650;2023-07-31T03:55:14;4.00;;;2.50;;
18917;SDS011;9591;52.742;13.650;2023-07-31T03:58:03;9.10;;;3.10;;
18917;SDS011;9591;52.742;13.650;2023-07-31T04:00:50;6.83;;;2.60;;
18917;SDS011;9591;52.742;13.650;2023-07-31T04:03:37;3.13;;;2.90;;
18917;SDS011;9591;52.742;13.650;2023-07-31T04:06:25;4.97;;;2.50;;
18917;SDS011;9591;52.742;13.650;2023-07-31T04:09:12;4.70;;;3.10;;
18917;SDS011;9591;52.742;13.650;2023-07-31T04:11:59;4.03;;;2.83;;
18917;SDS011;9591;52.742;13.650;2023-07-31T04:14:48;5.87;;;3.40;;
18917;SDS011;9591;52.742;13.650;2023-07-31T04:17:35;5.63;;;3.13;;
18917;SDS011;9591;52.742;13.650;2023-07-31T04:20:25;3.80;;;2.73;;
18917;SDS011;9591;52.742;13.650;2023-07-31T04:23:13;6.17;;;3.30;;
18917;SDS011;9591;52.742;13.650;2023-07-31T04:26:01;6.50;;;2.90;;
18917;SDS011;9591;52.742;13.650;2023-07-31T04:28:48;6.00;;;3.17;;
18917;SDS011;9591;52.742;13.650;2023-07-31T04:31:38;4.13;;;3.17;;
18917;SDS011;9591;52.742;13.650;2023-07-31T04:34:25;4.90;;;3.20;;
18917;SDS011;9591;52.742;13.650;2023-07-31T04:37:12;4.33;;;3.03;;
18917;SDS011;9591;52.742;13.650;2023-07-31T04:39:59;10.77;;;3.60;;
18917;SDS011;9591;52.742;13.650;2023-07-31T04:42:48;7.43;;;3.23;;
18917;SDS011;9591;52.742;13.650;2023-07-31T04:45:35;5.50;;;3.30;;
18917;SDS011;9591;52.742;13.650;2023-07-31T04:48:24;4.37;;;3.00;;
18917;SDS011;9591;52.742;13.650;2023-07-31T04:51:13;10.53;;;3.70;;
18917;SDS011;9591;52.742;13.650;2023-07-31T04:54:02;10.00;;;3.80;;
18917;SDS011;9591;52.742;13.650;2023-07-31T04:56:49;7.53;;;3.63;;
18917;SDS011;9591;52.742;13.650;2023-07-31T04:59:36;5.43;;;3.07;;
18917;SDS011;9591;52.742;13.650;2023-07-31T05:02:23;7.13;;;3.50;;
18917;SDS011;9591;52.742;13.650;2023-07-31T05:05:11;8.00;;;3.50;;
18917;SDS011;9591;52.742;13.650;2023-07-31T05:07:58;9.53;;;3.70;;
18917;SDS011;9591;52.742;13.650;2023-07-31T05:10:45;8.73;;;4.00;;
18917;SDS011;9591;52.742;13.650;2023-07-31T05:13:31;4.83;;;4.00;;
18917;SDS011;9591;52.742;13.650;2023-07-31T05:16:18;12.07;;;4.30;;
18917;SDS011;9591;52.742;13.650;2023-07-31T05:19:06;4.63;;;3.53;;
18917;SDS011;9591;52.742;13.650;2023-07-31T05:21:54;9.63;;;3.63;;
18917;SDS011;9591;52.742;13.650;2023-07-31T05:24:41;9.53;;;3.80;;
18917;SDS011;9591;52.742;13.650;2023-07-31T05:27:28;7.33;;;4.30;;
18917;SDS011;9591;52.742;13.650;2023-07-31T05:30:15;14.87;;;4.40;;
18917;SDS011;9591;52.742;13.650;2023-07-31T05:33:02;8.43;;;4.20;;
18917;SDS011;9591;52.742;13.650;2023-07-31T05:35:48;5.17;;;4.10;;
18917;SDS011;9591;52.742;13.650;2023-07-31T05:38:37;14.97;;;4.90;;
18917;SDS011;9591;52.742;13.650;2023-07-31T05:41:27;8.00;;;4.37;;
18917;SDS011;9591;52.742;13.650;2023-07-31T05:44:14;8.77;;;4.10;;
18917;SDS011;9591;52.742;13.650;2023-07-31T05:47:02;8.47;;;4.13;;
18917;SDS011;9591;52.742;13.650;2023-07-31T05:49:49;7.00;;;4.03;;
18917;SDS011;9591;52.742;13.650;2023-07-31T05:52:37;8.60;;;4.20;;
18917;SDS011;9591;52.742;13.650;2023-07-31T05:55:26;5.27;;;4.07;;
18917;SDS011;9591;52.742;13.650;2023-07-31T05:58:13;6.30;;;4.33;;
18917;SDS011;9591;52.742;13.650;2023-07-31T06:01:00;11.57;;;4.47;;
18917;SDS011;9591;52.742;13.650;2023-07-31T06:03:46;6.07;;;4.30;;
18917;SDS011;9591;52.742;13.650;2023-07-31T06:06:33;7.77;;;4.27;;
18917;SDS011;9591;52.742;13.650;2023-07-31T06:09:20;10.97;;;4.50;;
18917;SDS011;9591;52.742;13.650;2023-07-31T06:12:08;7.27;;;3.97;;
18917;SDS011;9591;52.742;13.650;2023-07-31T06:14:55;6.73;;;3.93;;
18917;SDS011;9591;52.742;13.650;2023-07-31T06:17:46;12.50;;;4.30;;
18917;SDS011;9591;52.742;13.650;2023-07-31T06:20:36;6.80;;;3.77;;
18917;SDS011;9591;52.742;13.650;2023-07-31T06:23:25;12.17;;;3.97;;
18917;SDS011;9591;52.742;13.650;2023-07-31T06:26:12;6.57;;;4.20;;
18917;SDS011;9591;52.742;13.650;2023-07-31T06:29:00;13.57;;;4.23;;
18917;SDS011;9591;52.742;13.650;2023-07-31T06:31:47;9.93;;;4.23;;
18917;SDS011;9591;52.742;13.650;2023-07-31T06:34:34;9.00;;;4.07;;
18917;SDS011;9591;52.742;13.650;2023-07-31T06:37:21;9.10;;;3.63;;
18917;SDS011;9591;52.742;13.650;2023-07-31T06:40:09;8.37;;;3.90;;
18917;SDS011;9591;52.742;13.650;2023-07-31T06:42:57;8.70;;;4.17;;
18917;SDS011;9591;52.742;13.650;2023-07-31T06:45:45;10.40;;;4.27;;
18917;SDS011;9591;52.742;13.650;2023-07-31T06:48:35;12.20;;;4.47;;
18917;SDS011;9591;52.742;13.650;2023-07-31T06:51:23;10.47;;;4.20;;
18917;SDS011;9591;52.742;13.650;2023-07-31T06:54:10;9.63;;;4.40;;
18917;SDS011;9591;52.742;13.650;2023-07-31T06:56:57;8.67;;;4.10;;
18917;SDS011;9591;52.742;13.650;2023-07-31T06:59:44;7.63;;;3.80;;
18917;SDS011;9591;52.742;13.650;2023-07-31T07:02:32;7.07;;;3.80;;
18917;SDS011;9591;52.742;13.650;2023-07-31T07:05:19;6.07;;;3.67;;
18917;SDS011;9591;52.742;13.650;2023-07-31T07:08:06;8.43;;;3.70;;
18917;SDS011;9591;52.742;13.650;2023-07-31T07:10:53;9.03;;;3.60;;
18917;SDS011;9591;52.742;13.650;2023-07-31T07:13:40;4.20;;;3.00;;
18917;SDS011;9591;52.742;13.650;2023-07-31T07:16:28;5.93;;;3.77;;
18917;SDS011;9591;52.742;13.650;2023-07-31T07:19:16;9.47;;;3.73;;
18917;SDS011;9591;52.742;13.650;2023-07-31T07:22:03;3.10;;;2.73;;
18917;SDS011;9591;52.742;13.650;2023-07-31T07:24:51;8.53;;;3.27;;
18917;SDS011;9591;52.742;13.650;2023-07-31T07:27:38;6.03;;;3.13;;
18917;SDS011;9591;52.742;13.650;2023-07-31T07:30:25;5.87;;;3.20;;
18917;SDS011;9591;52.742;13.650;2023-07-31T07:33:12;4.70;;;2.80;;
18917;SDS011;9591;52.742;13.650;2023-07-31T07:36:01;6.20;;;3.03;;
18917;SDS011;9591;52.742;13.650;2023-07-31T07:38:48;8.37;;;3.07;;
18917;SDS011;9591;52.742;13.650;2023-07-31T07:41:35;4.90;;;2.83;;
18917;SDS011;9591;52.742;13.650;2023-07-31T07:44:23;4.13;;;2.87;;
18917;SDS011;9591;52.742;13.650;2023-07-31T07:47:11;7.80;;;2.93;;
18917;SDS011;9591;52.742;13.650;2023-07-31T07:50:03;13.57;;;4.10;;
18917;SDS011;9591;52.742;13.650;2023-07-31T07:52:56;6.53;;;2.70;;
18917;SDS011;9591;52.742;13.650;2023-07-31T07:55:46;5.83;;;2.70;;
18917;SDS011;9591;52.742;13.650;2023-07-31T07:58:33;6.07;;;2.97;;
18917;SDS011;9591;52.742;13.650;2023-07-31T08:01:20;4.93;;;2.97;;
18917;SDS011;9591;52.742;13.650;2023-07-31T08:04:07;6.63;;;3.00;;
18917;SDS011;9591;52.742;13.650;2023-07-31T08:06:54;7.47;;;2.60;;
18917;SDS011;9591;52.742;13.650;2023-07-31T08:09:42;3.67;;;2.70;;
18917;SDS011;9591;52.742;13.650;2023-07-31T08:12:29;7.17;;;3.03;;
18917;SDS011;9591;52.742;13.650;2023-07-31T08:15:16;6.53;;;3.00;;
18917;SDS011;9591;52.742;13.650;2023-07-31T08:18:03;4.37;;;2.83;;
18917;SDS011;9591;52.742;13.650;2023-07-31T08:20:50;7.83;;;3.20;;
18917;SDS011;9591;52.742;13.650;2023-07-31T08:23:36;3.43;;;2.93;;
18917;SDS011;9591;52.742;13.650;2023-07-31T08:26:24;4.63;;;2.90;;
18917;SDS011;9591;52.742;13.650;2023-07-31T08:29:11;5.60;;;3.03;;
18917;SDS011;9591;52.742;13.650;2023-07-31T08:31:58;6.77;;;3.00;;
18917;SDS011;9591;52.742;13.650;2023-07-31T08:34:45;8.20;;;2.90;;
18917;SDS011;9591;52.742;13.650;2023-07-31T08:37:32;4.93;;;2.80;;
18917;SDS011;9591;52.742;13.650;2023-07-31T08:40:19;4.50;;;2.83;;
18917;SDS011;9591;52.742;13.650;2023-07-31T08:43:08;4.80;;;2.43;;
18917;SDS011;9591;52.742;13.650;2023-07-31T08:45:55;3.20;;;2.67;;
18917;SDS011;9591;52.742;13.650;2023-07-31T08:48:42;3.43;;;2.60;;
18917;SDS011;9591;52.742;13.650;2023-07-31T08:51:30;6.73;;;2.87;;
18917;SDS011;9591;52.742;13.650;2023-07-31T08:54:17;4.70;;;2.47;;
18917;SDS011;9591;52.742;13.650;2023-07-31T08:57:04;5.77;;;2.50;;
18917;SDS011;9591;52.742;13.650;2023-07-31T08:59:54;3.93;;;2.40;;
18917;SDS011;9591;52.742;13.650;2023-07-31T09:02:48;3.57;;;2.50;;
18917;SDS011;9591;52.742;13.650;2023-07-31T09:05:52;3.63;;;2.40;;
18917;SDS011;9591;52.742;13.650;2023-07-31T09:09:12;3.00;;;2.40;;
18917;SDS011;9591;52.742;13.650;2023-07-31T09:12:04;5.67;;;2.57;;
18917;SDS011;9591;52.742;13.650;2023-07-31T09:14:55;2.93;;;2.00;;
18917;SDS011;9591;52.742;13.650;2023-07-31T09:17:42;2.40;;;2.20;;
18917;SDS011;9591;52.742;13.650;2023-07-31T09:20:29;2.73;;;2.33;;
18917;SDS011;9591;52.742;13.650;2023-07-31T09:23:16;4.50;;;2.70;;
18917;SDS011;9591;52.742;13.650;2023-07-31T09:26:03;4.60;;;2.60;;
18917;SDS011;9591;52.742;13.650;2023-07-31T09:28:50;4.20;;;2.87;;
18917;SDS011;9591;52.742;13.650;2023-07-31T09:31:40;3.17;;;2.47;;
18917;SDS011;9591;52.742;13.650;2023-07-31T09:34:28;2.70;;;2.50;;
18917;SDS011;9591;52.742;13.650;2023-07-31T09:37:16;3.03;;;2.60;;
18917;SDS011;9591;52.742;13.650;2023-07-31T09:40:04;3.40;;;2.57;;
18917;SDS011;9591;52.742;13.650;2023-07-31T09:42:52;3.00;;;2.70;;
18917;SDS011;9591;52.742;13.650;2023-07-31T09:45:40;3.37;;;2.77;;
18917;SDS011;9591;52.742;13.650;2023-07-31T09:48:29;3.97;;;2.60;;
18917;SDS011;9591;52.742;13.650;2023-07-31T09:51:17;5.87;;;2.60;;
18917;SDS011;9591;52.742;13.650;2023-07-31T09:54:12;5.67;;;2.70;;
18917;SDS011;9591;52.742;13.650;2023-07-31T09:57:00;2.40;;;2.10;;
18917;SDS011;9591;52.742;13.650;2023-07-31T09:59:47;2.87;;;2.23;;
18917;SDS011;9591;52.742;13.650;2023-07-31T10:02:35;2.60;;;1.97;;
18917;SDS011;9591;52.742;13.650;2023-07-31T10:05:24;4.00;;;2.03;;
18917;SDS011;9591;52.742;13.650;2023-07-31T10:08:17;2.17;;;1.90;;
18917;SDS011;9591;52.742;13.650;2023-07-31T10:11:07;3.13;;;1.90;;
18917;SDS011;9591;52.742;13.650;2023-07-31T10:13:56;3.10;;;1.80;;
18917;SDS011;9591;52.742;13.650;2023-07-31T10:16:44;3.77;;;2.10;;
18917;SDS011;9591;52.742;13.650;2023-07-31T10:19:30;6.10;;;2.17;;
18917;SDS011;9591;52.742;13.650;2023-07-31T10:22:20;4.37;;;2.00;;
18917;SDS011;9591;52.742;13.650;2023-07-31T10:25:08;1.80;;;1.70;;
18917;SDS011;9591;52.742;13.650;2023-07-31T10:27:55;3.57;;;1.90;;
18917;SDS011;9591;52.742;13.650;2023-07-31T10:30:44;2.47;;;1.70;;
18917;SDS011;9591;52.742;13.650;2023-07-31T10:33:31;1.90;;;1.40;;
18917;SDS011;9591;52.742;13.650;2023-07-31T10:36:20;2.97;;;1.93;;
18917;SDS011;9591;52.742;13.650;2023-07-31T10:39:32;4.03;;;1.80;;
18917;SDS011;9591;52.742;13.650;2023-07-31T10:42:20;2.90;;;2.00;;
18917;SDS011;9591;52.742;13.650;2023-07-31T10:45:23;4.57;;;2.03;;
18917;SDS011;9591;52.742;13.650;2023-07-31T10:48:12;4.70;;;2.20;;
18917;SDS011;9591;52.742;13.650;2023-07-31T10:51:00;3.30;;;2.00;;
18917;SDS011;9591;52.742;13.650;2023-07-31T10:53:47;3.17;;;2.07;;
18917;SDS011;9591;52.742;13.650;2023-07-31T10:56:38;2.97;;;2.27;;
18917;SDS011;9591;52.742;13.650;2023-07-31T10:59:26;3.70;;;2.20;;
18917;SDS011;9591;52.742;13.650;2023-07-31T11:02:24;3.53;;;2.10;;
18917;SDS011;9591;52.742;13.650;2023-07-31T11:05:15;2.47;;;2.23;;
18917;SDS011;9591;52.742;13.650;2023-07-31T11:08:07;4.30;;;2.83;;
18917;SDS011;9591;52.742;13.650;2023-07-31T11:11:06;3.13;;;2.80;;
18917;SDS011;9591;52.742;13.650;2023-07-31T11:13:55;4.40;;;2.90;;
18917;SDS011;9591;52.742;13.650;2023-07-31T11:16:42;4.23;;;3.00;;
18917;SDS011;9591;52.742;13.650;2023-07-31T11:19:29;5.63;;;3.20;;
18917;SDS011;9591;52.742;13.650;2023-07-31T11:22:16;4.53;;;3.00;;
18917;SDS011;9591;52.742;13.650;2023-07-31T11:25:05;5.73;;;3.33;;
18917;SDS011;9591;52.742;13.650;2023-07-31T11:27:54;4.73;;;3.00;;
18917;SDS011;9591;52.742;13.650;2023-07-31T11:30:43;6.13;;;3.57;;
18917;SDS011;9591;52.742;13.650;2023-07-31T11:33:31;6.80;;;3.40;;
18917;SDS011;9591;52.742;13.650;2023-07-31T11:36:19;5.27;;;3.50;;
18917;SDS011;9591;52.742;13.650;2023-07-31T11:39:07;6.00;;;3.60;;
18917;SDS011;9591;52.742;13.650;2023-07-31T11:41:58;7.83;;;4.20;;
18917;SDS011;9591;52.742;13.650;2023-07-31T11:44:45;6.20;;;3.70;;
18917;SDS011;9591;52.742;13.650;2023-07-31T11:47:34;8.17;;;3.87;;
18917;SDS011;9591;52.742;13.650;2023-07-31T11:50:23;15.77;;;4.03;;
18917;SDS011;9591;52.742;13.650;2023-07-31T11:53:17;11.23;;;4.13;;
18917;SDS011;9591;52.742;13.650;2023-07-31T11:56:07;6.07;;;4.00;;
18917;SDS011;9591;52.742;13.650;2023-07-31T11:58:58;5.97;;;3.93;;
18917;SDS011;9591;52.742;13.650;2023-07-31T12:01:48;8.13;;;3.87;;
18917;SDS011;9591;52.742;13.650;2023-07-31T12:04:40;7.10;;;3.80;;
18917;SDS011;9591;52.742;13.650;2023-07-31T12:07:43;7.33;;;3.37;;
18917;SDS011;9591;52.742;13.650;2023-07-31T12:10:35;8.80;;;3.43;;
18917;SDS011;9591;52.742;13.650;2023-07-31T12:13:27;9.20;;;3.10;;
18917;SDS011;9591;52.742;13.650;2023-07-31T12:16:14;9.43;;;3.53;;
18917;SDS011;9591;52.742;13.650;2023-07-31T12:19:03;9.83;;;4.20;;
18917;SDS011;9591;52.742;13.650;2023-07-31T12:21:53;4.43;;;2.97;;
18917;SDS011;9591;52.742;13.650;2023-07-31T12:24:41;4.87;;;2.70;;
18917;SDS011;9591;52.742;13.650;2023-07-31T12:27:32;6.33;;;3.47;;
18917;SDS011;9591;52.742;13.650;2023-07-31T12:30:26;5.93;;;3.10;;
18917;SDS011;9591;52.742;13.650;2023-07-31T12:33:14;6.33;;;2.97;;
18917;SDS011;9591;52.742;13.650;2023-07-31T12:36:02;6.57;;;3.27;;
18917;SDS011;9591;52.742;13.650;2023-07-31T12:38:52;7.37;;;2.70;;
18917;SDS011;9591;52.742;13.650;2023-07-31T12:41:45;5.90;;;3.10;;
18917;SDS011;9591;52.742;13.650;2023-07-31T12:44:32;5.20;;;3.30;;
18917;SDS011;9591;52.742;13.650;2023-07-31T12:47:19;3.10;;;2.80;;
18917;SDS011;9591;52.742;13.650;2023-07-31T12:50:07;8.00;;;2.77;;
18917;SDS011;9591;52.742;13.650;2023-07-31T12:53:04;5.73;;;2.77;;
18917;SDS011;9591;52.742;13.650;2023-07-31T12:55:55;7.70;;;3.07;;
18917;SDS011;9591;52.742;13.650;2023-07-31T12:58:43;5.00;;;3.07;;
18917;SDS011;9591;52.742;13.650;2023-07-31T13:01:30;3.83;;;2.50;;
18917;SDS011;9591;52.742;13.650;2023-07-31T13:04:17;6.83;;;2.90;;
18917;SDS011;9591;52.742;13.650;2023-07-31T13:07:05;6.37;;;2.80;;
18917;SDS011;9591;52.742;13.650;2023-07-31T13:09:55;5.93;;;3.40;;
18917;SDS011;9591;52.742;13.650;2023-07-31T13:12:48;5.47;;;2.80;;
18917;SDS011;9591;52.742;13.650;2023-07-31T13:15:34;4.70;;;3.30;;
18917;SDS011;9591;52.742;13.650;2023-07-31T13:18:21;6.47;;;3.40;;
18917;SDS011;9591;52.742;13.650;2023-07-31T13:21:08;7.43;;;3.93;;
18917;SDS011;9591;52.742;13.650;2023-07-31T13:23:55;5.10;;;3.27;;
18917;SDS011;9591;52.742;13.650;2023-07-31T13:26:42;4.30;;;3.00;;
18917;SDS011;9591;52.742;13.650;2023-07-31T13:29:31;5.03;;;2.83;;
18917;SDS011;9591;52.742;13.650;2023-07-31T13:32:18;8.90;;;3.43;;
18917;SDS011;9591;52.742;13.650;2023-07-31T13:35:06;5.37;;;2.93;;
18917;SDS011;9591;52.742;13.650;2023-07-31T13:37:53;5.50;;;3.00;;
18917;SDS011;9591;52.742;13.650;2023-07-31T13:40:40;5.30;;;2.90;;
18917;SDS011;9591;52.742;13.650;2023-07-31T13:43:27;6.93;;;3.20;;
18917;SDS011;9591;52.742;13.650;2023-07-31T13:46:16;4.47;;;2.70;;
18917;SDS011;9591;52.742;13.650;2023-07-31T13:49:03;6.93;;;3.23;;
18917;SDS011;9591;52.742;13.650;2023-07-31T13:51:50;4.13;;;2.60;;
18917;SDS011;9591;52.742;13.650;2023-07-31T13:54:36;7.60;;;3.03;;
18917;SDS011;9591;52.742;13.650;2023-07-31T13:57:23;4.43;;;2.57;;
18917;SDS011;9591;52.742;13.650;2023-07-31T14:00:11;5.43;;;2.53;;
18917;SDS011;9591;52.742;13.650;2023-07-31T14:03:02;3.53;;;2.33;;
18917;SDS011;9591;52.742;13.650;2023-07-31T14:05:52;10.30;;;2.60;;
18917;SDS011;9591;52.742;13.650;2023-07-31T14:08:40;4.40;;;2.60;;
18917;SDS011;9591;52.742;13.650;2023-07-31T14:11:28;4.00;;;2.40;;
18917;SDS011;9591;52.742;13.650;2023-07-31T14:14:15;5.00;;;2.47;;
18917;SDS011;9591;52.742;13.650;2023-07-31T14:17:05;5.80;;;2.07;;
18917;SDS011;9591;52.742;13.650;2023-07-31T14:19:54;7.40;;;2.47;;
18917;SDS011;9591;52.742;13.650;2023-07-31T14:22:41;5.27;;;2.30;;
18917;SDS011;9591;52.742;13.650;2023-07-31T14:25:29;5.43;;;2.50;;
18917;SDS011;9591;52.742;13.650;2023-07-31T14:28:15;4.60;;;2.50;;
18917;SDS011;9591;52.742;13.650;2023-07-31T14:31:03;4.60;;;2.63;;
18917;SDS011;9591;52.742;13.650;2023-07-31T14:33:51;4.43;;;2.40;;
18917;SDS011;9591;52.742;13.650;2023-07-31T14:36:44;4.10;;;2.20;;
18917;SDS011;9591;52.742;13.650;2023-07-31T14:39:34;6.67;;;2.50;;
18917;SDS011;9591;52.742;13.650;2023-07-31T14:42:26;4.03;;;2.47;;
18917;SDS011;9591;52.742;13.650;2023-07-31T14:45:13;3.83;;;2.20;;
18917;SDS011;9591;52.742;13.650;2023-07-31T14:48:00;3.97;;;2.33;;
18917;SDS011;9591;52.742;13.650;2023-07-31T14:50:48;5.13;;;2.47;;
18917;SDS011;9591;52.742;13.650;2023-07-31T14:53:37;5.50;;;2.40;;
18917;SDS011;9591;52.742;13.650;2023-07-31T14:56:24;4.47;;;2.50;;
18917;SDS011;9591;52.742;13.650;2023-07-31T14:59:13;8.47;;;2.80;;
18917;SDS011;9591;52.742;13.650;2023-07-31T15:02:00;3.03;;;2.23;;
18917;SDS011;9591;52.742;13.650;2023-07-31T15:04:47;6.47;;;2.70;;
18917;SDS011;9591;52.742;13.650;2023-07-31T15:07:35;6.33;;;2.40;;
18917;SDS011;9591;52.742;13.650;2023-07-31T15:10:24;4.67;;;2.50;;
18917;SDS011;9591;52.742;13.650;2023-07-31T15:13:11;5.13;;;2.60;;
18917;SDS011;9591;52.742;13.650;2023-07-31T15:15:58;3.40;;;2.07;;
18917;SDS011;9591;52.742;13.650;2023-07-31T15:18:45;7.20;;;2.70;;
18917;SDS011;9591;52.742;13.650;2023-07-31T15:21:32;3.47;;;2.37;;
18917;SDS011;9591;52.742;13.650;2023-07-31T15:24:19;3.17;;;2.37;;
18917;SDS011;9591;52.742;13.650;2023-07-31T15:27:08;3.97;;;2.37;;
18917;SDS011;9591;52.742;13.650;2023-07-31T15:29:56;4.77;;;2.30;;
18917;SDS011;9591;52.742;13.650;2023-07-31T15:32:43;5.70;;;2.73;;
18917;SDS011;9591;52.742;13.650;2023-07-31T15:35:33;7.67;;;4.60;;
18917;SDS011;9591;52.742;13.650;2023-07-31T15:38:21;5.00;;;2.60;;
18917;SDS011;9591;52.742;13.650;2023-07-31T15:41:11;5.27;;;2.63;;
18917;SDS011;9591;52.742;13.650;2023-07-31T15:44:00;7.20;;;2.43;;
18917;SDS011;9591;52.742;13.650;2023-07-31T15:46:48;5.17;;;2.47;;
18917;SDS011;9591;52.742;13.650;2023-07-31T15:49:34;4.53;;;2.53;;
18917;SDS011;9591;52.742;13.650;2023-07-31T15:52:21;7.83;;;2.53;;
18917;SDS011;9591;52.742;13.650;2023-07-31T15:55:08;3.57;;;2.60;;
18917;SDS011;9591;52.742;13.650;2023-07-31T15:57:56;5.10;;;2.40;;
18917;SDS011;9591;52.742;13.650;2023-07-31T16:00:44;3.50;;;2.30;;
18917;SDS011;9591;52.742;13.650;2023-07-31T16:03:31;3.23;;;2.47;;
18917;SDS011;9591;52.742;13.650;2023-07-31T16:06:18;4.20;;;2.40;;
18917;SDS011;9591;52.742;13.650;2023-07-31T16:09:05;12.53;;;2.60;;
18917;SDS011;9591;52.742;13.650;2023-07-31T16:11:52;7.13;;;2.47;;
18917;SDS011;9591;52.742;13.650;2023-07-31T16:14:39;4.40;;;2.40;;
18917;SDS011;9591;52.742;13.650;2023-07-31T16:17:27;5.77;;;2.80;;
18917;SDS011;9591;52.742;13.650;2023-07-31T16:20:14;6.33;;;2.30;;
18917;SDS011;9591;52.742;13.650;2023-07-31T16:23:01;11.73;;;3.03;;
18917;SDS011;9591;52.742;13.650;2023-07-31T16:25:48;3.80;;;3.30;;
18917;SDS011;9591;52.742;13.650;2023-07-31T16:28:34;5.57;;;2.57;;
18917;SDS011;9591;52.742;13.650;2023-07-31T16:31:21;6.63;;;3.13;;
18917;SDS011;9591;52.742;13.650;2023-07-31T16:34:10;3.93;;;2.50;;
18917;SDS011;9591;52.742;13.650;2023-07-31T16:36:56;5.33;;;2.60;;
18917;SDS011;9591;52.742;13.650;2023-07-31T16:39:43;11.10;;;2.90;;
18917;SDS011;9591;52.742;13.650;2023-07-31T16:42:34;5.40;;;3.07;;
18917;SDS011;9591;52.742;13.650;2023-07-31T16:45:21;6.57;;;2.83;;
18917;SDS011;9591;52.742;13.650;2023-07-31T16:48:10;9.50;;;2.80;;
18917;SDS011;9591;52.742;13.650;2023-07-31T16:50:58;4.73;;;2.80;;
18917;SDS011;9591;52.742;13.650;2023-07-31T16:53:46;3.83;;;2.83;;
18917;SDS011;9591;52.742;13.650;2023-07-31T16:56:33;8.30;;;2.80;;